sensor_id;sensor_type;location;lat;lon;timestamp;temperature;humidity
26278;DHT22;14000;52.056;8.510;2023-03-24T00:00:18;11.10;99.90
26278;DHT22;14000;52.056;8.510;2023-03-24T00:02:45;11.10;99.90
26278;DHT22;14000;52.056;8.510;2023-03-24T00:05:14;11.00;99.90
26278;DHT22;14000;52.056;8.510;2023-03-24T00:07:40;11.00;99.90
26278;DHT22;14000;52.056;8.510;2023-03-24T00:10:12;11.00;99.90
26278;DHT22;14000;52.056;8.510;2023-03-24T00:12:40;10.90;99.90
26278;DHT22;14000;52.056;8.510;2023-03-24T00:15:12;10.90;99.90
26278;DHT22;14000;52.056;8.510;2023-03-24T00:17:38;10.90;99.90
26278;DHT22;14000;52.056;8.510;2023-03-24T00:20:09;10.90;99.90
26278;DHT22;14000;52.056;8.510;2023-03-24T00:22:47;10.90;99.90
26278;DHT22;14000;52.056;8.510;2023-03-24T00:25:14;10.90;99.90
26278;DHT22;14000;52.056;8.510;2023-03-24T00:27:40;10.90;99.90
26278;DHT22;14000;52.056;8.510;2023-03-24T00:30:08;10.90;99.90
26278;DHT22;14000;52.056;8.510;2023-03-24T00:32:36;10.80;99.90
26278;DHT22;14000;52.056;8.510;2023-03-24T00:35:08;10.80;99.90
26278;DHT22;14000;52.056;8.510;2023-03-24T00:37:37;10.80;99.90
26278;DHT22;14000;52.056;8.510;2023-03-24T00:40:16;10.80;99.90
26278;DHT22;14000;52.056;8.510;2023-03-24T00:42:44;10.80;99.90
26278;DHT22;14000;52.056;8.510;2023-03-24T00:45:11;10.80;99.90
26278;DHT22;14000;52.056;8.510;2023-03-24T00:47:37;10.80;99.90
26278;DHT22;14000;52.056;8.510;2023-03-24T00:50:10;10.80;99.90
26278;DHT22;14000;52.056;8.510;2023-03-24T00:52:36;10.80;99.90
26278;DHT22;14000;52.056;8.510;2023-03-24T00:55:04;10.90;99.90
26278;DHT22;14000;52.056;8.510;2023-03-24T00:57:31;10.80;99.90
26278;DHT22;14000;52.056;8.510;2023-03-24T01:00:02;10.80;99.90
26278;DHT22;14000;52.056;8.510;2023-03-24T01:02:35;10.80;99.90
26278;DHT22;14000;52.056;8.510;2023-03-24T01:05:01;10.90;99.90
26278;DHT22;14000;52.056;8.510;2023-03-24T01:07:28;10.80;99.90
26278;DHT22;14000;52.056;8.510;2023-03-24T01:09:55;10.90;99.90
26278;DHT22;14000;52.056;8.510;2023-03-24T01:12:32;10.90;99.90
26278;DHT22;14000;52.056;8.510;2023-03-24T01:15:00;10.90;99.90
26278;DHT22;14000;52.056;8.510;2023-03-24T01:17:30;10.90;99.90
26278;DHT22;14000;52.056;8.510;2023-03-24T01:19:56;10.90;99.90
26278;DHT22;14000;52.056;8.510;2023-03-24T01:22:27;10.90;99.90
26278;DHT22;14000;52.056;8.510;2023-03-24T01:24:53;10.90;99.90
26278;DHT22;14000;52.056;8.510;2023-03-24T01:27:19;10.90;99.90
26278;DHT22;14000;52.056;8.510;2023-03-24T01:29:45;10.90;99.90
26278;DHT22;14000;52.056;8.510;2023-03-24T01:32:11;10.90;99.90
26278;DHT22;14000;52.056;8.510;2023-03-24T01:34:37;10.90;99.90
26278;DHT22;14000;52.056;8.510;2023-03-24T01:37:03;10.90;99.90
26278;DHT22;14000;52.056;8.510;2023-03-24T01:39:28;10.90;99.90
26278;DHT22;14000;52.056;8.510;2023-03-24T01:41:54;11.00;99.90
26278;DHT22;14000;52.056;8.510;2023-03-24T01:44:33;10.90;99.90
26278;DHT22;14000;52.056;8.510;2023-03-24T01:47:00;10.90;99.90
26278;DHT22;14000;52.056;8.510;2023-03-24T01:49:34;10.90;99.90
26278;DHT22;14000;52.056;8.510;2023-03-24T01:52:02;11.00;99.90
26278;DHT22;14000;52.056;8.510;2023-03-24T01:54:33;11.00;99.90
26278;DHT22;14000;52.056;8.510;2023-03-24T01:57:05;11.00;99.90
26278;DHT22;14000;52.056;8.510;2023-03-24T01:59:35;11.00;99.90
26278;DHT22;14000;52.056;8.510;2023-03-24T02:02:04;11.10;99.90
26278;DHT22;14000;52.056;8.510;2023-03-24T02:04:34;11.00;99.90
26278;DHT22;14000;52.056;8.510;2023-03-24T02:07:34;11.10;99.90
26278;DHT22;14000;52.056;8.510;2023-03-24T02:10:13;11.10;99.90
26278;DHT22;14000;52.056;8.510;2023-03-24T02:12:41;11.00;99.90
26278;DHT22;14000;52.056;8.510;2023-03-24T02:15:08;11.00;99.90
26278;DHT22;14000;52.056;8.510;2023-03-24T02:36:48;11.10;99.90
26278;DHT22;14000;52.056;8.510;2023-03-24T02:43:03;11.20;99.90
26278;DHT22;14000;52.056;8.510;2023-03-24T02:45:38;11.20;99.90
26278;DHT22;14000;52.056;8.510;2023-03-24T02:48:19;11.20;99.90
26278;DHT22;14000;52.056;8.510;2023-03-24T02:53:51;11.20;99.90
26278;DHT22;14000;52.056;8.510;2023-03-24T02:56:28;11.20;99.90
26278;DHT22;14000;52.056;8.510;2023-03-24T02:59:05;11.30;99.90
26278;DHT22;14000;52.056;8.510;2023-03-24T03:01:40;11.20;99.90
26278;DHT22;14000;52.056;8.510;2023-03-24T03:04:13;11.20;99.90
26278;DHT22;14000;52.056;8.510;2023-03-24T03:06:43;11.20;99.90
26278;DHT22;14000;52.056;8.510;2023-03-24T03:09:14;11.30;99.90
26278;DHT22;14000;52.056;8.510;2023-03-24T03:11:44;11.30;99.90
26278;DHT22;14000;52.056;8.510;2023-03-24T03:14:34;11.20;99.90
26278;DHT22;14000;52.056;8.510;2023-03-24T03:17:15;11.20;99.90
26278;DHT22;14000;52.056;8.510;2023-03-24T03:19:44;11.30;99.90
26278;DHT22;14000;52.056;8.510;2023-03-24T03:22:16;11.30;99.90
26278;DHT22;14000;52.056;8.510;2023-03-24T03:24:45;11.30;99.90
26278;DHT22;14000;52.056;8.510;2023-03-24T03:27:24;11.30;99.90
26278;DHT22;14000;52.056;8.510;2023-03-24T03:30:02;11.30;99.90
26278;DHT22;14000;52.056;8.510;2023-03-24T03:32:32;11.30;99.90
26278;DHT22;14000;52.056;8.510;2023-03-24T03:35:15;11.30;99.90
26278;DHT22;14000;52.056;8.510;2023-03-24T03:40:39;11.20;99.90
26278;DHT22;14000;52.056;8.510;2023-03-24T03:43:06;11.20;99.90
26278;DHT22;14000;52.056;8.510;2023-03-24T03:45:33;11.20;99.90
26278;DHT22;14000;52.056;8.510;2023-03-24T03:47:59;11.20;99.90
26278;DHT22;14000;52.056;8.510;2023-03-24T03:50:25;11.20;99.90
26278;DHT22;14000;52.056;8.510;2023-03-24T03:52:51;11.20;99.90
26278;DHT22;14000;52.056;8.510;2023-03-24T03:55:18;11.20;99.90
26278;DHT22;14000;52.056;8.510;2023-03-24T03:57:44;11.20;99.90
26278;DHT22;14000;52.056;8.510;2023-03-24T04:00:17;11.20;99.90
26278;DHT22;14000;52.056;8.510;2023-03-24T04:05:37;11.20;99.90
26278;DHT22;14000;52.056;8.510;2023-03-24T04:14:07;11.20;99.90
26278;DHT22;14000;52.056;8.510;2023-03-24T04:27:47;11.30;99.90
26278;DHT22;14000;52.056;8.510;2023-03-24T04:30:33;11.30;99.90
26278;DHT22;14000;52.056;8.510;2023-03-24T04:33:23;11.30;99.90
26278;DHT22;14000;52.056;8.510;2023-03-24T04:36:08;11.40;99.90
26278;DHT22;14000;52.056;8.510;2023-03-24T04:38:47;11.40;99.90
26278;DHT22;14000;52.056;8.510;2023-03-24T04:41:15;11.50;99.90
26278;DHT22;14000;52.056;8.510;2023-03-24T04:43:42;11.50;99.90
26278;DHT22;14000;52.056;8.510;2023-03-24T04:46:09;11.60;99.90
26278;DHT22;14000;52.056;8.510;2023-03-24T04:48:35;11.60;99.90
26278;DHT22;14000;52.056;8.510;2023-03-24T04:51:02;11.70;99.90
26278;DHT22;14000;52.056;8.510;2023-03-24T04:53:29;11.70;99.90
26278;DHT22;14000;52.056;8.510;2023-03-24T04:56:28;11.70;99.90
26278;DHT22;14000;52.056;8.510;2023-03-24T04:58:55;11.70;99.90
26278;DHT22;14000;52.056;8.510;2023-03-24T05:01:21;11.80;99.90
26278;DHT22;14000;52.056;8.510;2023-03-24T05:03:48;11.80;99.90
26278;DHT22;14000;52.056;8.510;2023-03-24T05:06:14;11.90;99.90
26278;DHT22;14000;52.056;8.510;2023-03-24T05:08:41;11.90;99.90
26278;DHT22;14000;52.056;8.510;2023-03-24T05:11:06;11.90;99.90
26278;DHT22;14000;52.056;8.510;2023-03-24T05:13:32;12.00;99.90
26278;DHT22;14000;52.056;8.510;2023-03-24T05:15:57;12.00;99.90
26278;DHT22;14000;52.056;8.510;2023-03-24T05:18:23;11.90;99.90
26278;DHT22;14000;52.056;8.510;2023-03-24T05:20:50;12.00;99.90
26278;DHT22;14000;52.056;8.510;2023-03-24T05:23:15;12.00;99.90
26278;DHT22;14000;52.056;8.510;2023-03-24T05:25:41;12.00;99.90
26278;DHT22;14000;52.056;8.510;2023-03-24T05:28:07;12.00;99.90
26278;DHT22;14000;52.056;8.510;2023-03-24T05:30:32;12.10;99.90
26278;DHT22;14000;52.056;8.510;2023-03-24T05:32:58;12.10;99.90
26278;DHT22;14000;52.056;8.510;2023-03-24T05:35:23;12.10;99.90
26278;DHT22;14000;52.056;8.510;2023-03-24T05:37:49;12.10;99.90
26278;DHT22;14000;52.056;8.510;2023-03-24T05:40:15;12.00;99.90
26278;DHT22;14000;52.056;8.510;2023-03-24T05:42:41;12.10;99.90
26278;DHT22;14000;52.056;8.510;2023-03-24T05:45:08;12.10;99.90
26278;DHT22;14000;52.056;8.510;2023-03-24T05:47:34;12.10;99.90
26278;DHT22;14000;52.056;8.510;2023-03-24T05:49:59;12.10;99.90
26278;DHT22;14000;52.056;8.510;2023-03-24T05:52:25;12.00;99.90
26278;DHT22;14000;52.056;8.510;2023-03-24T05:54:51;11.80;99.90
26278;DHT22;14000;52.056;8.510;2023-03-24T05:57:17;11.70;99.90
26278;DHT22;14000;52.056;8.510;2023-03-24T05:59:43;11.60;99.90
26278;DHT22;14000;52.056;8.510;2023-03-24T06:02:09;11.60;99.90
26278;DHT22;14000;52.056;8.510;2023-03-24T06:04:35;11.60;99.90
26278;DHT22;14000;52.056;8.510;2023-03-24T06:07:00;11.60;99.90
26278;DHT22;14000;52.056;8.510;2023-03-24T06:09:28;11.60;99.90
26278;DHT22;14000;52.056;8.510;2023-03-24T06:11:57;11.60;99.90
26278;DHT22;14000;52.056;8.510;2023-03-24T06:14:23;11.70;99.90
26278;DHT22;14000;52.056;8.510;2023-03-24T06:16:48;11.70;99.90
26278;DHT22;14000;52.056;8.510;2023-03-24T06:19:15;11.70;99.90
26278;DHT22;14000;52.056;8.510;2023-03-24T06:21:41;11.70;99.90
26278;DHT22;14000;52.056;8.510;2023-03-24T06:24:06;11.70;99.90
26278;DHT22;14000;52.056;8.510;2023-03-24T06:26:32;11.80;99.90
26278;DHT22;14000;52.056;8.510;2023-03-24T06:28:58;11.70;99.90
26278;DHT22;14000;52.056;8.510;2023-03-24T06:31:24;11.60;99.90
26278;DHT22;14000;52.056;8.510;2023-03-24T06:33:52;11.50;99.90
26278;DHT22;14000;52.056;8.510;2023-03-24T06:36:18;11.40;99.90
26278;DHT22;14000;52.056;8.510;2023-03-24T06:38:44;11.20;99.90
26278;DHT22;14000;52.056;8.510;2023-03-24T06:41:10;11.10;99.90
26278;DHT22;14000;52.056;8.510;2023-03-24T06:43:36;10.90;99.90
26278;DHT22;14000;52.056;8.510;2023-03-24T06:46:02;10.90;99.90
26278;DHT22;14000;52.056;8.510;2023-03-24T06:48:28;10.80;99.90
26278;DHT22;14000;52.056;8.510;2023-03-24T06:50:54;10.80;99.90
26278;DHT22;14000;52.056;8.510;2023-03-24T06:53:21;10.70;99.90
26278;DHT22;14000;52.056;8.510;2023-03-24T06:55:47;10.70;99.90
26278;DHT22;14000;52.056;8.510;2023-03-24T06:58:15;10.80;99.90
26278;DHT22;14000;52.056;8.510;2023-03-24T07:00:43;10.60;99.90
26278;DHT22;14000;52.056;8.510;2023-03-24T07:03:10;10.60;99.90
26278;DHT22;14000;52.056;8.510;2023-03-24T07:05:41;10.50;99.90
26278;DHT22;14000;52.056;8.510;2023-03-24T07:08:08;10.50;99.90
26278;DHT22;14000;52.056;8.510;2023-03-24T07:10:35;10.40;99.90
26278;DHT22;14000;52.056;8.510;2023-03-24T07:13:01;10.40;99.90
26278;DHT22;14000;52.056;8.510;2023-03-24T07:15:28;10.40;99.90
26278;DHT22;14000;52.056;8.510;2023-03-24T07:17:54;10.40;99.90
26278;DHT22;14000;52.056;8.510;2023-03-24T07:20:19;10.40;99.90
26278;DHT22;14000;52.056;8.510;2023-03-24T07:22:46;10.40;99.90
26278;DHT22;14000;52.056;8.510;2023-03-24T07:25:11;10.40;99.90
26278;DHT22;14000;52.056;8.510;2023-03-24T07:27:39;10.40;99.90
26278;DHT22;14000;52.056;8.510;2023-03-24T07:30:06;10.40;99.90
26278;DHT22;14000;52.056;8.510;2023-03-24T07:32:32;10.50;99.90
26278;DHT22;14000;52.056;8.510;2023-03-24T07:35:05;10.50;99.90
26278;DHT22;14000;52.056;8.510;2023-03-24T07:37:31;10.50;99.90
26278;DHT22;14000;52.056;8.510;2023-03-24T07:39:56;10.60;99.90
26278;DHT22;14000;52.056;8.510;2023-03-24T07:42:23;10.60;99.90
26278;DHT22;14000;52.056;8.510;2023-03-24T07:44:49;10.70;99.90
26278;DHT22;14000;52.056;8.510;2023-03-24T07:47:14;10.80;99.90
26278;DHT22;14000;52.056;8.510;2023-03-24T07:49:40;10.80;99.90
26278;DHT22;14000;52.056;8.510;2023-03-24T07:52:05;10.80;99.90
26278;DHT22;14000;52.056;8.510;2023-03-24T07:54:31;10.80;99.90
26278;DHT22;14000;52.056;8.510;2023-03-24T07:56:58;10.80;99.90
26278;DHT22;14000;52.056;8.510;2023-03-24T07:59:24;10.90;99.90
26278;DHT22;14000;52.056;8.510;2023-03-24T08:01:50;10.90;99.90
26278;DHT22;14000;52.056;8.510;2023-03-24T08:04:15;10.90;99.90
26278;DHT22;14000;52.056;8.510;2023-03-24T08:06:42;11.10;99.90
26278;DHT22;14000;52.056;8.510;2023-03-24T08:09:08;11.10;99.90
26278;DHT22;14000;52.056;8.510;2023-03-24T08:11:33;11.10;99.90
26278;DHT22;14000;52.056;8.510;2023-03-24T08:14:00;11.10;99.90
26278;DHT22;14000;52.056;8.510;2023-03-24T08:16:26;11.10;99.90
26278;DHT22;14000;52.056;8.510;2023-03-24T08:18:51;11.00;99.90
26278;DHT22;14000;52.056;8.510;2023-03-24T08:21:17;11.00;99.90
26278;DHT22;14000;52.056;8.510;2023-03-24T08:23:43;11.00;99.90
26278;DHT22;14000;52.056;8.510;2023-03-24T08:26:08;11.10;99.90
26278;DHT22;14000;52.056;8.510;2023-03-24T08:28:37;11.20;99.90
26278;DHT22;14000;52.056;8.510;2023-03-24T08:31:03;11.30;99.90
26278;DHT22;14000;52.056;8.510;2023-03-24T08:33:29;11.40;99.90
26278;DHT22;14000;52.056;8.510;2023-03-24T08:35:55;11.40;99.90
26278;DHT22;14000;52.056;8.510;2023-03-24T08:38:25;11.50;99.90
26278;DHT22;14000;52.056;8.510;2023-03-24T08:40:57;11.60;99.90
26278;DHT22;14000;52.056;8.510;2023-03-24T08:43:23;11.60;99.90
26278;DHT22;14000;52.056;8.510;2023-03-24T08:45:50;11.70;99.90
26278;DHT22;14000;52.056;8.510;2023-03-24T08:48:16;11.70;99.90
26278;DHT22;14000;52.056;8.510;2023-03-24T08:50:42;11.70;99.90
26278;DHT22;14000;52.056;8.510;2023-03-24T08:53:08;11.80;99.90
26278;DHT22;14000;52.056;8.510;2023-03-24T08:55:36;11.80;99.90
26278;DHT22;14000;52.056;8.510;2023-03-24T08:58:14;11.90;99.90
26278;DHT22;14000;52.056;8.510;2023-03-24T09:00:41;11.90;99.90
26278;DHT22;14000;52.056;8.510;2023-03-24T09:03:11;11.90;99.90
26278;DHT22;14000;52.056;8.510;2023-03-24T09:05:37;11.90;99.90
26278;DHT22;14000;52.056;8.510;2023-03-24T09:08:02;11.90;99.90
26278;DHT22;14000;52.056;8.510;2023-03-24T09:10:28;12.00;99.90
26278;DHT22;14000;52.056;8.510;2023-03-24T09:12:54;12.00;99.90
26278;DHT22;14000;52.056;8.510;2023-03-24T09:15:19;12.00;99.90
26278;DHT22;14000;52.056;8.510;2023-03-24T09:17:45;12.00;99.90
26278;DHT22;14000;52.056;8.510;2023-03-24T09:20:13;12.10;99.90
26278;DHT22;14000;52.056;8.510;2023-03-24T09:22:41;12.20;99.90
26278;DHT22;14000;52.056;8.510;2023-03-24T09:25:09;12.10;99.90
26278;DHT22;14000;52.056;8.510;2023-03-24T09:27:35;12.10;99.90
26278;DHT22;14000;52.056;8.510;2023-03-24T09:30:01;12.00;99.90
26278;DHT22;14000;52.056;8.510;2023-03-24T09:32:27;12.10;99.90
26278;DHT22;14000;52.056;8.510;2023-03-24T09:34:52;12.10;99.90
26278;DHT22;14000;52.056;8.510;2023-03-24T09:37:18;12.00;99.90
26278;DHT22;14000;52.056;8.510;2023-03-24T09:39:44;12.00;99.90
26278;DHT22;14000;52.056;8.510;2023-03-24T09:42:25;12.10;99.90
26278;DHT22;14000;52.056;8.510;2023-03-24T09:45:06;12.20;99.90
26278;DHT22;14000;52.056;8.510;2023-03-24T09:47:40;12.30;99.90
26278;DHT22;14000;52.056;8.510;2023-03-24T09:50:26;12.30;99.90
26278;DHT22;14000;52.056;8.510;2023-03-24T09:52:57;12.40;99.90
26278;DHT22;14000;52.056;8.510;2023-03-24T09:55:26;12.60;99.90
26278;DHT22;14000;52.056;8.510;2023-03-24T09:57:56;12.60;99.90
26278;DHT22;14000;52.056;8.510;2023-03-24T10:00:27;12.70;99.90
26278;DHT22;14000;52.056;8.510;2023-03-24T10:02:57;12.60;99.90
26278;DHT22;14000;52.056;8.510;2023-03-24T10:08:20;12.60;99.90
26278;DHT22;14000;52.056;8.510;2023-03-24T10:13:55;12.60;99.90
26278;DHT22;14000;52.056;8.510;2023-03-24T10:16:22;12.50;99.90
26278;DHT22;14000;52.056;8.510;2023-03-24T10:19:00;12.50;99.90
26278;DHT22;14000;52.056;8.510;2023-03-24T10:21:31;12.50;99.90
26278;DHT22;14000;52.056;8.510;2023-03-24T10:26:45;12.60;99.90
26278;DHT22;14000;52.056;8.510;2023-03-24T10:29:20;12.60;99.90
26278;DHT22;14000;52.056;8.510;2023-03-24T10:31:52;12.60;99.90
26278;DHT22;14000;52.056;8.510;2023-03-24T10:34:19;12.50;99.90
26278;DHT22;14000;52.056;8.510;2023-03-24T10:36:46;12.40;99.90
26278;DHT22;14000;52.056;8.510;2023-03-24T10:39:14;12.40;99.90
26278;DHT22;14000;52.056;8.510;2023-03-24T10:41:41;12.30;99.90
26278;DHT22;14000;52.056;8.510;2023-03-24T10:44:09;12.30;99.90
26278;DHT22;14000;52.056;8.510;2023-03-24T10:46:45;12.30;99.90
26278;DHT22;14000;52.056;8.510;2023-03-24T10:51:44;12.30;99.90
26278;DHT22;14000;52.056;8.510;2023-03-24T10:59:36;12.70;99.90
26278;DHT22;14000;52.056;8.510;2023-03-24T11:04:39;12.50;99.90
26278;DHT22;14000;52.056;8.510;2023-03-24T11:07:20;12.60;99.90
26278;DHT22;14000;52.056;8.510;2023-03-24T11:12:36;12.50;99.90
26278;DHT22;14000;52.056;8.510;2023-03-24T11:17:56;12.80;99.90
26278;DHT22;14000;52.056;8.510;2023-03-24T11:20:36;13.00;99.90
26278;DHT22;14000;52.056;8.510;2023-03-24T11:25:40;13.40;99.90
26278;DHT22;14000;52.056;8.510;2023-03-24T11:28:08;13.50;99.90
26278;DHT22;14000;52.056;8.510;2023-03-24T11:30:49;13.50;99.90
26278;DHT22;14000;52.056;8.510;2023-03-24T11:35:50;13.20;99.90
26278;DHT22;14000;52.056;8.510;2023-03-24T11:38:18;13.10;99.90
26278;DHT22;14000;52.056;8.510;2023-03-24T11:41:02;13.00;99.90
26278;DHT22;14000;52.056;8.510;2023-03-24T11:43:31;13.00;99.90
26278;DHT22;14000;52.056;8.510;2023-03-24T11:46:15;13.10;99.90
26278;DHT22;14000;52.056;8.510;2023-03-24T11:48:52;13.00;99.90
26278;DHT22;14000;52.056;8.510;2023-03-24T11:51:34;13.00;99.90
26278;DHT22;14000;52.056;8.510;2023-03-24T11:54:03;13.10;99.90
26278;DHT22;14000;52.056;8.510;2023-03-24T11:56:41;13.50;99.90
26278;DHT22;14000;52.056;8.510;2023-03-24T11:59:33;14.10;99.90
26278;DHT22;14000;52.056;8.510;2023-03-24T12:02:12;13.90;99.90
26278;DHT22;14000;52.056;8.510;2023-03-24T12:05:09;13.70;99.90
26278;DHT22;14000;52.056;8.510;2023-03-24T12:07:51;13.80;99.90
26278;DHT22;14000;52.056;8.510;2023-03-24T12:24:16;13.10;99.90
26278;DHT22;14000;52.056;8.510;2023-03-24T12:26:46;13.20;99.90
26278;DHT22;14000;52.056;8.510;2023-03-24T12:35:00;14.30;99.90
26278;DHT22;14000;52.056;8.510;2023-03-24T12:43:08;14.20;99.90
26278;DHT22;14000;52.056;8.510;2023-03-24T12:45:54;14.00;99.90
26278;DHT22;14000;52.056;8.510;2023-03-24T12:51:12;13.90;99.90
26278;DHT22;14000;52.056;8.510;2023-03-24T12:56:25;13.70;99.90
26278;DHT22;14000;52.056;8.510;2023-03-24T12:59:29;13.70;99.90
26278;DHT22;14000;52.056;8.510;2023-03-24T13:02:11;13.80;99.90
26278;DHT22;14000;52.056;8.510;2023-03-24T13:04:42;14.00;99.90
26278;DHT22;14000;52.056;8.510;2023-03-24T13:07:17;14.00;99.90
26278;DHT22;14000;52.056;8.510;2023-03-24T13:09:54;13.90;99.90
26278;DHT22;14000;52.056;8.510;2023-03-24T13:13:50;13.90;99.90
26278;DHT22;14000;52.056;8.510;2023-03-24T13:15:52;13.80;99.90
26278;DHT22;14000;52.056;8.510;2023-03-24T13:18:31;14.00;99.90
26278;DHT22;14000;52.056;8.510;2023-03-24T13:21:10;14.30;99.90
26278;DHT22;14000;52.056;8.510;2023-03-24T13:23:56;14.50;99.90
26278;DHT22;14000;52.056;8.510;2023-03-24T13:26:34;14.50;99.90
26278;DHT22;14000;52.056;8.510;2023-03-24T13:31:35;14.30;99.90
26278;DHT22;14000;52.056;8.510;2023-03-24T13:34:04;14.20;99.90
26278;DHT22;14000;52.056;8.510;2023-03-24T13:36:37;14.10;99.90
26278;DHT22;14000;52.056;8.510;2023-03-24T13:39:18;13.90;99.90
26278;DHT22;14000;52.056;8.510;2023-03-24T13:41:52;14.00;99.90
26278;DHT22;14000;52.056;8.510;2023-03-24T13:44:22;13.90;99.90
26278;DHT22;14000;52.056;8.510;2023-03-24T13:49:31;14.00;99.90
26278;DHT22;14000;52.056;8.510;2023-03-24T13:52:02;14.00;99.90
26278;DHT22;14000;52.056;8.510;2023-03-24T13:54:29;14.20;99.90
26278;DHT22;14000;52.056;8.510;2023-03-24T13:57:05;14.40;99.90
26278;DHT22;14000;52.056;8.510;2023-03-24T14:02:50;15.10;99.90
26278;DHT22;14000;52.056;8.510;2023-03-24T14:10:27;15.80;99.90
26278;DHT22;14000;52.056;8.510;2023-03-24T14:13:02;15.80;99.90
26278;DHT22;14000;52.056;8.510;2023-03-24T14:15:31;15.20;99.90
26278;DHT22;14000;52.056;8.510;2023-03-24T14:23:28;14.80;99.90
26278;DHT22;14000;52.056;8.510;2023-03-24T14:25:56;15.70;99.90
26278;DHT22;14000;52.056;8.510;2023-03-24T14:28:47;16.00;99.90
26278;DHT22;14000;52.056;8.510;2023-03-24T14:34:12;15.30;99.90
26278;DHT22;14000;52.056;8.510;2023-03-24T14:36:40;15.00;99.90
26278;DHT22;14000;52.056;8.510;2023-03-24T14:39:28;14.80;99.90
26278;DHT22;14000;52.056;8.510;2023-03-24T14:41:55;14.70;99.90
26278;DHT22;14000;52.056;8.510;2023-03-24T14:47:22;14.50;99.90
26278;DHT22;14000;52.056;8.510;2023-03-24T14:49:51;14.40;99.90
26278;DHT22;14000;52.056;8.510;2023-03-24T14:52:33;14.30;99.90
26278;DHT22;14000;52.056;8.510;2023-03-24T14:57:30;14.30;99.90
26278;DHT22;14000;52.056;8.510;2023-03-24T15:02:57;14.40;99.90
26278;DHT22;14000;52.056;8.510;2023-03-24T15:05:29;14.30;99.90
26278;DHT22;14000;52.056;8.510;2023-03-24T15:13:37;14.10;99.90
26278;DHT22;14000;52.056;8.510;2023-03-24T15:23:58;12.10;99.90
26278;DHT22;14000;52.056;8.510;2023-03-24T15:26:27;11.00;99.90
26278;DHT22;14000;52.056;8.510;2023-03-24T15:29:01;10.40;99.90
26278;DHT22;14000;52.056;8.510;2023-03-24T15:31:28;9.90;99.90
26278;DHT22;14000;52.056;8.510;2023-03-24T15:36:52;9.40;99.90
26278;DHT22;14000;52.056;8.510;2023-03-24T15:39:19;9.30;99.90
26278;DHT22;14000;52.056;8.510;2023-03-24T15:41:49;9.30;99.90
26278;DHT22;14000;52.056;8.510;2023-03-24T15:44:18;9.20;99.90
26278;DHT22;14000;52.056;8.510;2023-03-24T15:46:45;9.10;99.90
26278;DHT22;14000;52.056;8.510;2023-03-24T15:49:22;9.10;99.90
26278;DHT22;14000;52.056;8.510;2023-03-24T15:51:51;9.10;99.90
26278;DHT22;14000;52.056;8.510;2023-03-24T15:54:40;9.00;99.90
26278;DHT22;14000;52.056;8.510;2023-03-24T15:57:20;9.00;99.90
26278;DHT22;14000;52.056;8.510;2023-03-24T15:59:48;8.90;99.90
26278;DHT22;14000;52.056;8.510;2023-03-24T16:02:34;8.90;99.90
26278;DHT22;14000;52.056;8.510;2023-03-24T16:05:11;8.90;99.90
26278;DHT22;14000;52.056;8.510;2023-03-24T16:07:38;9.00;99.90
26278;DHT22;14000;52.056;8.510;2023-03-24T16:10:18;9.10;99.90
26278;DHT22;14000;52.056;8.510;2023-03-24T16:12:50;9.20;99.90
26278;DHT22;14000;52.056;8.510;2023-03-24T16:15:15;9.20;99.90
26278;DHT22;14000;52.056;8.510;2023-03-24T16:17:41;9.30;99.90
26278;DHT22;14000;52.056;8.510;2023-03-24T16:20:17;9.40;99.90
26278;DHT22;14000;52.056;8.510;2023-03-24T16:22:43;9.30;99.90
26278;DHT22;14000;52.056;8.510;2023-03-24T16:25:09;9.30;99.90
26278;DHT22;14000;52.056;8.510;2023-03-24T16:27:34;9.40;99.90
26278;DHT22;14000;52.056;8.510;2023-03-24T16:30:00;9.40;99.90
26278;DHT22;14000;52.056;8.510;2023-03-24T16:32:26;9.40;99.90
26278;DHT22;14000;52.056;8.510;2023-03-24T16:34:51;9.50;99.90
26278;DHT22;14000;52.056;8.510;2023-03-24T16:37:17;9.50;99.90
26278;DHT22;14000;52.056;8.510;2023-03-24T16:39:43;9.50;99.90
26278;DHT22;14000;52.056;8.510;2023-03-24T16:42:08;9.60;99.90
26278;DHT22;14000;52.056;8.510;2023-03-24T16:44:34;9.60;99.90
26278;DHT22;14000;52.056;8.510;2023-03-24T16:47:00;9.60;99.90
26278;DHT22;14000;52.056;8.510;2023-03-24T16:49:25;9.50;99.90
26278;DHT22;14000;52.056;8.510;2023-03-24T16:51:51;9.50;99.90
26278;DHT22;14000;52.056;8.510;2023-03-24T16:54:18;9.40;99.90
26278;DHT22;14000;52.056;8.510;2023-03-24T16:56:44;9.40;99.90
26278;DHT22;14000;52.056;8.510;2023-03-24T16:59:10;9.30;99.90
26278;DHT22;14000;52.056;8.510;2023-03-24T17:01:41;9.30;99.90
26278;DHT22;14000;52.056;8.510;2023-03-24T17:04:16;9.30;99.90
26278;DHT22;14000;52.056;8.510;2023-03-24T17:06:45;9.30;99.90
26278;DHT22;14000;52.056;8.510;2023-03-24T17:09:13;9.30;99.90
26278;DHT22;14000;52.056;8.510;2023-03-24T17:11:51;9.30;99.90
26278;DHT22;14000;52.056;8.510;2023-03-24T17:14:17;9.30;99.90
26278;DHT22;14000;52.056;8.510;2023-03-24T17:16:44;9.40;99.90
26278;DHT22;14000;52.056;8.510;2023-03-24T17:19:13;9.40;99.90
26278;DHT22;14000;52.056;8.510;2023-03-24T17:21:46;9.40;99.90
26278;DHT22;14000;52.056;8.510;2023-03-24T17:24:13;9.50;99.90
26278;DHT22;14000;52.056;8.510;2023-03-24T17:26:40;9.50;99.90
26278;DHT22;14000;52.056;8.510;2023-03-24T17:29:06;9.50;99.90
26278;DHT22;14000;52.056;8.510;2023-03-24T17:31:33;9.60;99.90
26278;DHT22;14000;52.056;8.510;2023-03-24T17:33:59;9.60;99.90
26278;DHT22;14000;52.056;8.510;2023-03-24T17:36:24;9.60;99.90
26278;DHT22;14000;52.056;8.510;2023-03-24T17:38:50;9.60;99.90
26278;DHT22;14000;52.056;8.510;2023-03-24T17:41:16;9.60;99.90
26278;DHT22;14000;52.056;8.510;2023-03-24T17:43:44;9.70;99.90
26278;DHT22;14000;52.056;8.510;2023-03-24T17:46:10;9.60;99.90
26278;DHT22;14000;52.056;8.510;2023-03-24T17:48:36;9.60;99.90
26278;DHT22;14000;52.056;8.510;2023-03-24T17:51:02;9.60;99.90
26278;DHT22;14000;52.056;8.510;2023-03-24T17:53:27;9.60;99.90
26278;DHT22;14000;52.056;8.510;2023-03-24T17:55:55;9.60;99.90
26278;DHT22;14000;52.056;8.510;2023-03-24T17:58:22;9.60;99.90
26278;DHT22;14000;52.056;8.510;2023-03-24T18:00:48;9.60;99.90
26278;DHT22;14000;52.056;8.510;2023-03-24T18:03:14;9.60;99.90
26278;DHT22;14000;52.056;8.510;2023-03-24T18:05:40;9.60;99.90
26278;DHT22;14000;52.056;8.510;2023-03-24T18:08:06;9.60;99.90
26278;DHT22;14000;52.056;8.510;2023-03-24T18:10:33;9.60;99.90
26278;DHT22;14000;52.056;8.510;2023-03-24T18:13:03;9.60;99.90
26278;DHT22;14000;52.056;8.510;2023-03-24T18:15:29;9.60;99.90
26278;DHT22;14000;52.056;8.510;2023-03-24T18:17:55;9.60;99.90
26278;DHT22;14000;52.056;8.510;2023-03-24T18:20:20;9.60;99.90
26278;DHT22;14000;52.056;8.510;2023-03-24T18:22:46;9.60;99.90
26278;DHT22;14000;52.056;8.510;2023-03-24T18:25:13;9.60;99.90